Time;durP1;ratioP1;P1;durP2;ratioP2;P2;SDS_P1;SDS_P2;PMS_P1;PMS_P2;Temp;Humidity;BMP_temperature;BMP_pressure;BME280_temperature;BME280_humidity;BME280_pressure;Samples;Min_cycle;Max_cycle;Signal;HPM_P1;HPM_P2
2022/05/11 00:01:49;;;;;;;;;;;22.40;43.20;;;;;;5076778;28;20310;-88
2022/05/11 00:04:15;;;;;;;;;;;22.30;43.40;;;;;;5072948;28;19936;-88
2022/05/11 00:06:41;;;;;;;;;;;22.30;44.00;;;;;;5061684;28;20387;-87
2022/05/11 00:09:08;;;;;;;;;;;22.20;44.40;;;;;;5074814;28;19951;-87
2022/05/11 00:11:34;;;;;;;;;;;22.10;44.60;;;;;;5075407;28;19923;-87
2022/05/11 00:14:00;;;;;;;;;;;22.10;44.90;;;;;;5073114;28;19916;-87
2022/05/11 00:16:26;;;;;;;;;;;22.00;45.70;;;;;;5072508;28;19920;-87
2022/05/11 00:18:52;;;;;;;;;;;22.00;45.80;;;;;;5075142;28;20253;-86
2022/05/11 00:21:17;;;;;;;;;;;21.90;46.30;;;;;;5074010;28;19919;-87
2022/05/11 00:23:43;;;;;;;;;;;21.80;47.90;;;;;;5076374;28;20429;-87
2022/05/11 00:26:09;;;;;;;;;;;21.70;49.30;;;;;;5076741;28;19917;-87
2022/05/11 00:28:34;;;;;;;;;;;21.60;49.90;;;;;;5074087;28;20252;-87
2022/05/11 00:31:00;;;;;;;;;;;21.50;51.60;;;;;;5074154;28;20003;-87
2022/05/11 00:33:25;;;;;;;;;;;21.40;53.60;;;;;;5073556;28;19916;-87
2022/05/11 00:35:51;;;;;;;;;;;21.30;55.10;;;;;;5071282;28;19913;-87
2022/05/11 00:38:18;;;;;;;;;;;21.20;55.70;;;;;;5067000;28;19920;-89
2022/05/11 00:40:46;;;;;;;;;;;21.10;56.40;;;;;;5074908;28;20376;-87
2022/05/11 00:43:11;;;;;;;;;;;21.10;57.00;;;;;;5072558;28;19977;-88
2022/05/11 00:45:40;;;;;;;;;;;21.10;57.70;;;;;;5067388;28;19916;-87
2022/05/11 00:49:33;;;;;;;;;;;21.10;57.80;;;;;;5073400;28;19939;-88
2022/05/11 00:50:53;;;;;;;;;;;21.20;58.10;;;;;;5071175;28;19967;-87
2022/05/11 00:53:19;;;;;;;;;;;21.20;58.30;;;;;;5074585;28;19920;-87
2022/05/11 00:55:53;;;;;;;;;;;21.20;58.40;;;;;;5056318;28;20348;-87
2022/05/11 00:58:23;;;;;;;;;;;21.20;58.60;;;;;;5073487;28;19924;-88
2022/05/11 01:00:48;;;;;;;;;;;21.20;58.90;;;;;;5071320;28;19927;-87
2022/05/11 01:03:27;;;;;;;;;;;21.30;59.20;;;;;;5070371;28;19917;-88
2022/05/11 01:05:53;;;;;;;;;;;21.30;59.20;;;;;;5073396;28;19919;-87
2022/05/11 01:08:20;;;;;;;;;;;21.20;59.20;;;;;;5068274;28;19920;-87
2022/05/11 01:10:46;;;;;;;;;;;21.20;59.40;;;;;;5067841;28;19919;-88
2022/05/11 01:13:13;;;;;;;;;;;21.20;58.70;;;;;;5072949;28;19999;-88
2022/05/11 01:15:40;;;;;;;;;;;21.20;58.60;;;;;;5073319;28;19916;-88
2022/05/11 01:18:06;;;;;;;;;;;21.20;58.40;;;;;;5072889;28;20352;-87
2022/05/11 01:20:33;;;;;;;;;;;21.20;58.40;;;;;;5073897;28;20034;-88
2022/05/11 01:23:03;;;;;;;;;;;21.20;58.20;;;;;;5074626;28;19927;-87
2022/05/11 01:25:30;;;;;;;;;;;21.20;58.30;;;;;;5074258;28;19916;-88
2022/05/11 01:28:11;;;;;;;;;;;21.30;57.80;;;;;;5075856;28;19977;-87
2022/05/11 01:30:36;;;;;;;;;;;21.30;57.90;;;;;;5065352;28;19913;-88
2022/05/11 01:33:02;;;;;;;;;;;21.30;57.70;;;;;;5072566;28;19916;-88
2022/05/11 01:35:27;;;;;;;;;;;21.30;57.80;;;;;;5074105;28;19912;-87
2022/05/11 01:38:31;;;;;;;;;;;21.30;57.90;;;;;;5072845;28;19931;-87
2022/05/11 01:40:57;;;;;;;;;;;21.30;57.50;;;;;;5002247;28;20616;-87
2022/05/11 01:43:24;;;;;;;;;;;21.20;57.60;;;;;;4996197;28;19921;-87
2022/05/11 01:45:49;;;;;;;;;;;21.20;58.00;;;;;;5041000;28;19966;-87
2022/05/11 01:48:15;;;;;;;;;;;21.10;58.70;;;;;;5058041;28;19924;-87
2022/05/11 01:50:40;;;;;;;;;;;21.10;58.90;;;;;;5073220;28;20354;-88
2022/05/11 01:53:06;;;;;;;;;;;21.10;58.60;;;;;;5072036;28;20011;-87
2022/05/11 01:55:32;;;;;;;;;;;21.00;58.60;;;;;;5072867;28;20252;-87
2022/05/11 01:57:58;;;;;;;;;;;21.00;58.70;;;;;;5071000;28;19920;-88
2022/05/11 02:00:24;;;;;;;;;;;21.10;58.70;;;;;;5072645;28;19951;-88
2022/05/11 02:02:50;;;;;;;;;;;21.10;59.30;;;;;;5065067;28;19924;-87
2022/05/11 02:08:00;;;;;;;;;;;21.30;59.00;;;;;;5072806;28;19985;-87
2022/05/11 02:10:26;;;;;;;;;;;21.30;59.30;;;;;;5070921;28;19916;-88
2022/05/11 02:12:52;;;;;;;;;;;21.30;58.70;;;;;;5072092;28;19923;-88
2022/05/11 02:15:19;;;;;;;;;;;21.30;58.00;;;;;;5069617;28;19923;-88
2022/05/11 02:17:45;;;;;;;;;;;21.40;57.70;;;;;;5072313;28;20019;-88
2022/05/11 02:20:12;;;;;;;;;;;21.40;57.40;;;;;;5071910;28;19920;-88
2022/05/11 02:22:37;;;;;;;;;;;21.50;57.00;;;;;;5073566;28;20268;-88
2022/05/11 02:25:03;;;;;;;;;;;21.50;57.40;;;;;;5072615;28;19918;-88
2022/05/11 02:27:31;;;;;;;;;;;21.60;56.70;;;;;;5067638;28;19921;-87
2022/05/11 02:29:57;;;;;;;;;;;21.60;57.80;;;;;;5068142;28;20669;-87
2022/05/11 02:32:23;;;;;;;;;;;21.60;57.40;;;;;;5070891;28;19920;-87
2022/05/11 02:37:33;;;;;;;;;;;21.50;57.60;;;;;;5065923;28;19969;-88
2022/05/11 02:39:59;;;;;;;;;;;21.50;57.20;;;;;;5072272;28;19924;-87
2022/05/11 02:42:24;;;;;;;;;;;21.50;57.20;;;;;;5073414;28;19923;-87
2022/05/11 02:44:49;;;;;;;;;;;21.60;56.60;;;;;;5072381;28;20237;-88
2022/05/11 02:47:15;;;;;;;;;;;21.60;56.50;;;;;;5065389;28;19952;-87
2022/05/11 02:49:41;;;;;;;;;;;21.70;56.10;;;;;;5071058;28;19962;-88
2022/05/11 02:52:06;;;;;;;;;;;21.70;56.20;;;;;;5056090;28;19920;-87
2022/05/11 02:54:32;;;;;;;;;;;21.70;56.50;;;;;;5074214;28;19916;-87
2022/05/11 02:56:57;;;;;;;;;;;21.80;56.20;;;;;;5072830;28;19943;-88
2022/05/11 02:59:23;;;;;;;;;;;21.80;55.30;;;;;;5070146;28;19966;-87
2022/05/11 03:01:51;;;;;;;;;;;21.80;55.10;;;;;;5070661;28;19920;-87
2022/05/11 03:04:18;;;;;;;;;;;21.80;55.30;;;;;;5070832;28;20301;-87
2022/05/11 03:06:47;;;;;;;;;;;21.70;55.70;;;;;;5071229;28;19917;-88
2022/05/11 03:09:14;;;;;;;;;;;21.80;55.70;;;;;;5073377;28;20360;-88
2022/05/11 03:11:40;;;;;;;;;;;21.70;54.90;;;;;;5071527;28;20632;-87
2022/05/11 03:14:06;;;;;;;;;;;21.70;55.60;;;;;;5072490;28;20275;-88
2022/05/11 03:16:31;;;;;;;;;;;21.80;56.10;;;;;;5062739;28;19925;-88
2022/05/11 03:18:59;;;;;;;;;;;21.70;56.30;;;;;;5069464;28;19924;-87
2022/05/11 03:21:25;;;;;;;;;;;21.70;56.60;;;;;;5070127;28;19925;-87
2022/05/11 03:23:50;;;;;;;;;;;21.70;56.60;;;;;;5071867;28;19919;-88
2022/05/11 03:26:16;;;;;;;;;;;21.70;56.20;;;;;;5072221;28;20338;-88
2022/05/11 03:28:41;;;;;;;;;;;21.70;55.50;;;;;;5070722;28;19912;-88
2022/05/11 03:31:07;;;;;;;;;;;21.60;55.60;;;;;;5071000;28;19912;-88
2022/05/11 03:36:16;;;;;;;;;;;21.60;54.90;;;;;;5071938;28;19923;-88
2022/05/11 03:38:42;;;;;;;;;;;21.50;54.70;;;;;;5070827;28;19916;-88
2022/05/11 03:41:08;;;;;;;;;;;21.50;54.70;;;;;;5073504;28;20367;-88
2022/05/11 03:43:33;;;;;;;;;;;21.40;54.50;;;;;;5068452;28;19966;-88
2022/05/11 03:45:59;;;;;;;;;;;21.40;54.10;;;;;;5067911;28;20100;-88
2022/05/11 03:48:25;;;;;;;;;;;21.40;54.20;;;;;;5070808;28;20284;-87
2022/05/11 03:50:51;;;;;;;;;;;21.40;54.10;;;;;;5072511;28;19912;-88
2022/05/11 03:53:16;;;;;;;;;;;21.50;54.30;;;;;;5069529;28;19916;-86
2022/05/11 03:55:42;;;;;;;;;;;21.50;54.40;;;;;;5062476;28;19919;-87
2022/05/11 03:58:07;;;;;;;;;;;21.60;54.50;;;;;;5069747;28;20299;-87
2022/05/11 04:00:33;;;;;;;;;;;21.50;54.20;;;;;;5072326;28;19925;-86
2022/05/11 04:02:58;;;;;;;;;;;21.60;54.30;;;;;;5075328;28;19931;-86
2022/05/11 04:05:24;;;;;;;;;;;21.70;54.00;;;;;;5074793;28;19927;-89
2022/05/11 04:07:49;;;;;;;;;;;21.70;54.20;;;;;;5075041;28;20375;-87
2022/05/11 04:10:16;;;;;;;;;;;21.70;54.20;;;;;;5073940;28;19913;-87
2022/05/11 04:12:42;;;;;;;;;;;21.80;54.30;;;;;;5075422;28;19923;-87
2022/05/11 04:15:08;;;;;;;;;;;21.80;54.10;;;;;;5072750;28;20300;-88
2022/05/11 04:17:34;;;;;;;;;;;21.80;54.20;;;;;;5073578;28;19917;-86
2022/05/11 04:20:00;;;;;;;;;;;21.90;54.20;;;;;;5074235;28;19947;-88
2022/05/11 04:22:25;;;;;;;;;;;21.90;53.90;;;;;;5075143;28;19920;-87
2022/05/11 04:24:51;;;;;;;;;;;21.90;54.00;;;;;;5074956;28;19912;-89
2022/05/11 04:27:16;;;;;;;;;;;22.00;54.10;;;;;;5074163;28;19955;-87
2022/05/11 04:29:42;;;;;;;;;;;22.00;54.00;;;;;;5075183;28;19912;-87
2022/05/11 04:32:08;;;;;;;;;;;22.00;54.20;;;;;;5074057;28;19916;-87
2022/05/11 04:34:34;;;;;;;;;;;22.10;54.20;;;;;;5073959;28;19999;-87
2022/05/11 04:37:00;;;;;;;;;;;22.20;54.00;;;;;;5074764;28;19921;-87
2022/05/11 04:39:25;;;;;;;;;;;22.20;53.90;;;;;;5075203;28;19923;-87
2022/05/11 04:41:51;;;;;;;;;;;22.30;54.10;;;;;;5076203;28;19991;-87
2022/05/11 04:44:17;;;;;;;;;;;22.30;53.80;;;;;;5075118;28;19928;-88
2022/05/11 04:46:42;;;;;;;;;;;22.40;53.30;;;;;;5074514;28;19916;-87
2022/05/11 04:49:19;;;;;;;;;;;22.40;53.30;;;;;;5074499;28;20050;-87
2022/05/11 04:51:49;;;;;;;;;;;22.50;53.20;;;;;;5074354;28;19921;-88
2022/05/11 04:54:15;;;;;;;;;;;22.50;53.00;;;;;;5074229;28;20419;-87
2022/05/11 04:56:40;;;;;;;;;;;22.50;53.10;;;;;;5075417;28;19920;-88
2022/05/11 04:59:07;;;;;;;;;;;22.60;52.90;;;;;;5075615;28;20290;-88
2022/05/11 05:01:33;;;;;;;;;;;22.70;53.10;;;;;;5073394;28;19940;-88
2022/05/11 05:03:58;;;;;;;;;;;22.70;52.80;;;;;;5085174;28;20413;-88
2022/05/11 05:06:24;;;;;;;;;;;22.80;52.80;;;;;;5089024;28;19923;-88
2022/05/11 05:08:51;;;;;;;;;;;22.80;52.70;;;;;;5092933;28;19953;-88
2022/05/11 05:11:17;;;;;;;;;;;22.90;52.40;;;;;;5086427;28;19916;-88
2022/05/11 05:13:44;;;;;;;;;;;22.90;52.40;;;;;;5082312;28;20007;-87
2022/05/11 05:16:10;;;;;;;;;;;23.00;52.20;;;;;;5088337;28;20371;-87
2022/05/11 05:18:35;;;;;;;;;;;23.10;51.80;;;;;;5088574;28;19965;-88
2022/05/11 05:21:01;;;;;;;;;;;23.20;51.80;;;;;;5087400;28;19927;-88
2022/05/11 05:23:26;;;;;;;;;;;23.20;51.80;;;;;;5083864;28;20345;-88
2022/05/11 05:25:52;;;;;;;;;;;23.40;51.70;;;;;;5087670;28;19908;-88
2022/05/11 05:31:04;;;;;;;;;;;23.70;50.90;;;;;;5099037;28;19924;-88
2022/05/11 05:33:30;;;;;;;;;;;23.90;50.80;;;;;;5090372;28;19934;-88
2022/05/11 05:35:56;;;;;;;;;;;24.10;50.50;;;;;;5090588;28;19909;-89
2022/05/11 05:38:21;;;;;;;;;;;24.30;49.90;;;;;;5086688;28;19928;-88
2022/05/11 05:40:47;;;;;;;;;;;24.30;49.80;;;;;;5085697;28;19913;-88
2022/05/11 05:43:12;;;;;;;;;;;24.50;49.30;;;;;;5091836;28;19919;-88
2022/05/11 05:45:38;;;;;;;;;;;24.70;49.40;;;;;;5080365;28;19913;-88
2022/05/11 05:48:03;;;;;;;;;;;24.80;48.60;;;;;;5089609;28;19942;-87
2022/05/11 05:50:29;;;;;;;;;;;24.90;48.10;;;;;;5084214;28;19916;-88
2022/05/11 05:52:55;;;;;;;;;;;25.10;48.10;;;;;;5083590;28;19924;-88
2022/05/11 05:55:21;;;;;;;;;;;25.20;48.00;;;;;;5086853;28;19913;-89
2022/05/11 05:57:47;;;;;;;;;;;25.30;48.20;;;;;;5080051;28;19958;-88
2022/05/11 06:00:13;;;;;;;;;;;25.50;48.30;;;;;;5085154;28;19920;-88
2022/05/11 06:02:38;;;;;;;;;;;25.70;48.20;;;;;;5083270;28;19927;-88
2022/05/11 06:05:04;;;;;;;;;;;25.90;47.80;;;;;;5080113;28;19965;-88
2022/05/11 06:07:30;;;;;;;;;;;26.10;48.40;;;;;;5071972;28;19923;-87
2022/05/11 06:09:56;;;;;;;;;;;26.50;49.20;;;;;;5084232;28;19915;-88
2022/05/11 06:12:22;;;;;;;;;;;27.10;50.20;;;;;;5081920;28;19923;-88
2022/05/11 06:14:47;;;;;;;;;;;27.80;49.00;;;;;;5087295;28;19908;-88
2022/05/11 06:17:18;;;;;;;;;;;28.30;48.40;;;;;;5080271;28;19944;-88
2022/05/11 06:19:44;;;;;;;;;;;28.90;48.30;;;;;;5084764;28;19905;-88
2022/05/11 06:22:09;;;;;;;;;;;29.70;47.60;;;;;;5080857;28;19927;-87
2022/05/11 06:24:35;;;;;;;;;;;30.40;46.70;;;;;;5078320;28;20293;-88
2022/05/11 06:27:00;;;;;;;;;;;31.20;45.10;;;;;;5078813;28;19916;-87
2022/05/11 06:29:26;;;;;;;;;;;32.00;43.40;;;;;;5092772;28;20256;-87
2022/05/11 06:31:52;;;;;;;;;;;32.70;42.20;;;;;;5079922;28;19972;-88
2022/05/11 06:34:17;;;;;;;;;;;33.30;40.40;;;;;;5084722;28;19920;-86
2022/05/11 06:36:43;;;;;;;;;;;33.80;37.20;;;;;;5081159;28;19912;-86
2022/05/11 06:39:09;;;;;;;;;;;34.00;35.70;;;;;;5076623;28;19989;-86
2022/05/11 06:41:34;;;;;;;;;;;34.10;34.60;;;;;;5091983;28;19916;-87
2022/05/11 06:44:00;;;;;;;;;;;34.10;32.80;;;;;;5081133;28;20401;-87
2022/05/11 06:46:25;;;;;;;;;;;34.30;32.80;;;;;;5082041;28;19912;-87
2022/05/11 06:48:51;;;;;;;;;;;34.50;32.90;;;;;;5085265;28;20247;-87
2022/05/11 06:51:18;;;;;;;;;;;34.80;31.10;;;;;;5083574;28;19912;-87
2022/05/11 06:59:21;;;;;;;;;;;35.30;28.20;;;;;;5081391;28;19943;-88
2022/05/11 07:01:47;;;;;;;;;;;35.50;27.50;;;;;;5077858;28;19913;-88
2022/05/11 07:04:13;;;;;;;;;;;35.80;27.10;;;;;;5083428;28;20043;-88
2022/05/11 07:06:38;;;;;;;;;;;36.10;26.80;;;;;;5077980;28;20315;-88
2022/05/11 07:09:04;;;;;;;;;;;36.40;26.90;;;;;;5078582;28;19916;-88
2022/05/11 07:14:14;;;;;;;;;;;36.70;26.10;;;;;;5077536;28;20418;-88
2022/05/11 07:16:39;;;;;;;;;;;36.60;24.70;;;;;;5080904;28;19917;-87
2022/05/11 07:19:05;;;;;;;;;;;36.40;24.60;;;;;;5079772;28;19920;-88
2022/05/11 07:21:30;;;;;;;;;;;36.50;25.10;;;;;;5076242;28;19913;-88
2022/05/11 07:23:56;;;;;;;;;;;36.80;25.20;;;;;;5076737;28;20021;-88
2022/05/11 07:26:22;;;;;;;;;;;36.90;24.60;;;;;;5073016;28;20012;-87
2022/05/11 07:28:48;;;;;;;;;;;37.10;23.80;;;;;;5078863;28;19955;-87
2022/05/11 07:31:13;;;;;;;;;;;37.30;23.60;;;;;;5070545;28;19925;-86
2022/05/11 07:33:39;;;;;;;;;;;37.30;21.90;;;;;;5082209;28;19916;-87
2022/05/11 07:36:05;;;;;;;;;;;37.30;22.20;;;;;;5085448;28;19923;-87
2022/05/11 07:38:30;;;;;;;;;;;37.40;22.30;;;;;;5086665;28;19920;-88
2022/05/11 07:40:56;;;;;;;;;;;37.70;21.90;;;;;;5087270;28;19969;-88
2022/05/11 07:43:21;;;;;;;;;;;37.90;21.20;;;;;;5087530;28;19912;-87
2022/05/11 07:45:47;;;;;;;;;;;38.00;21.40;;;;;;5090370;28;19921;-87
2022/05/11 07:48:12;;;;;;;;;;;38.40;21.50;;;;;;5087838;28;20276;-87
2022/05/11 07:50:38;;;;;;;;;;;38.70;21.30;;;;;;5087254;28;19931;-87
2022/05/11 07:53:04;;;;;;;;;;;39.00;21.00;;;;;;5087116;28;19935;-88
2022/05/11 07:55:30;;;;;;;;;;;39.30;20.90;;;;;;5085429;28;19920;-87
2022/05/11 08:00:43;;;;;;;;;;;40.10;20.70;;;;;;5090001;28;20031;-87
2022/05/11 08:03:09;;;;;;;;;;;40.40;20.20;;;;;;5082804;28;20469;-87
2022/05/11 08:05:35;;;;;;;;;;;40.80;20.20;;;;;;5085663;28;20038;-87
2022/05/11 08:08:05;;;;;;;;;;;41.10;19.50;;;;;;5087488;28;19962;-87
2022/05/11 08:10:33;;;;;;;;;;;41.20;18.40;;;;;;5088431;28;19974;-88
2022/05/11 08:12:59;;;;;;;;;;;41.30;18.20;;;;;;5084873;28;20046;-87
2022/05/11 08:15:27;;;;;;;;;;;41.30;17.90;;;;;;5084744;28;19917;-87
2022/05/11 08:17:53;;;;;;;;;;;41.20;17.90;;;;;;5092544;28;19916;-87
2022/05/11 08:20:20;;;;;;;;;;;41.10;17.70;;;;;;5081997;28;19921;-87
2022/05/11 08:22:46;;;;;;;;;;;41.00;17.90;;;;;;5102163;28;19924;-86
2022/05/11 08:25:12;;;;;;;;;;;41.00;17.90;;;;;;5089092;28;19916;-87
2022/05/11 08:27:39;;;;;;;;;;;41.10;18.00;;;;;;5087680;28;19931;-87
2022/05/11 08:35:33;;;;;;;;;;;41.90;18.00;;;;;;5087170;28;19971;-87
2022/05/11 08:37:59;;;;;;;;;;;42.00;17.30;;;;;;5085859;28;19921;-86
2022/05/11 08:40:37;;;;;;;;;;;42.20;17.60;;;;;;5084269;28;19909;-87
2022/05/11 08:43:05;;;;;;;;;;;42.50;17.10;;;;;;5083813;28;20377;-87
2022/05/11 08:46:03;;;;;;;;;;;42.80;17.30;;;;;;5087947;28;19908;-87
2022/05/11 08:48:47;;;;;;;;;;;43.10;17.00;;;;;;5059148;28;19968;-87
2022/05/11 08:51:21;;;;;;;;;;;43.30;16.80;;;;;;5080379;28;20090;-87
2022/05/11 08:53:49;;;;;;;;;;;43.50;16.20;;;;;;5090903;28;20035;-87
2022/05/11 08:56:16;;;;;;;;;;;43.80;16.50;;;;;;5082157;28;20448;-87
2022/05/11 08:58:48;;;;;;;;;;;44.00;16.60;;;;;;5082336;28;19924;-87
2022/05/11 09:01:29;;;;;;;;;;;44.30;16.40;;;;;;5085988;28;20331;-87
2022/05/11 09:03:56;;;;;;;;;;;44.50;15.90;;;;;;5081102;28;19966;-87
2022/05/11 09:06:27;;;;;;;;;;;44.80;15.80;;;;;;5086376;28;19908;-88
2022/05/11 09:08:53;;;;;;;;;;;45.00;15.80;;;;;;5086495;28;19938;-88
2022/05/11 09:11:27;;;;;;;;;;;45.10;15.60;;;;;;5087094;28;19916;-88
2022/05/11 09:13:55;;;;;;;;;;;45.00;15.00;;;;;;5075133;28;20275;-87
2022/05/11 09:16:46;;;;;;;;;;;45.00;15.30;;;;;;5088184;28;20386;-87
2022/05/11 09:19:23;;;;;;;;;;;44.90;15.00;;;;;;5085732;28;20389;-87
2022/05/11 09:21:56;;;;;;;;;;;45.00;15.40;;;;;;5084435;28;20295;-88
2022/05/11 09:24:32;;;;;;;;;;;45.20;14.90;;;;;;5094799;28;19908;-87
2022/05/11 09:27:08;;;;;;;;;;;45.30;15.10;;;;;;5089384;28;19916;-88
2022/05/11 09:29:39;;;;;;;;;;;45.30;14.90;;;;;;5086686;28;19994;-88
2022/05/11 09:32:23;;;;;;;;;;;45.40;14.70;;;;;;5085945;28;19916;-88
2022/05/11 09:34:48;;;;;;;;;;;45.50;14.70;;;;;;5080055;28;20249;-88
2022/05/11 09:37:26;;;;;;;;;;;45.70;14.80;;;;;;5082681;28;19920;-88
2022/05/11 09:39:52;;;;;;;;;;;45.70;14.50;;;;;;5069144;28;19924;-87
2022/05/11 09:42:20;;;;;;;;;;;45.60;14.40;;;;;;5081882;28;20357;-88
2022/05/11 09:44:48;;;;;;;;;;;45.60;14.80;;;;;;5084983;28;19908;-88
2022/05/11 09:47:34;;;;;;;;;;;45.70;14.70;;;;;;5091378;28;19923;-88
2022/05/11 09:50:20;;;;;;;;;;;45.50;14.50;;;;;;5082318;28;20568;-87
2022/05/11 09:52:46;;;;;;;;;;;45.50;14.50;;;;;;5089527;28;19952;-89
2022/05/11 09:55:16;;;;;;;;;;;45.50;14.80;;;;;;5083865;28;19912;-88
2022/05/11 09:57:51;;;;;;;;;;;45.60;14.80;;;;;;5074676;28;19968;-89
2022/05/11 10:00:16;;;;;;;;;;;45.50;14.80;;;;;;5085190;28;19920;-89
2022/05/11 10:02:48;;;;;;;;;;;45.60;14.80;;;;;;5081722;28;19913;-89
2022/05/11 10:05:32;;;;;;;;;;;45.50;14.90;;;;;;5086594;28;19980;-88
2022/05/11 10:08:01;;;;;;;;;;;45.60;15.00;;;;;;5086000;28;20503;-89
2022/05/11 10:10:29;;;;;;;;;;;45.80;15.10;;;;;;5088010;28;20359;-89
2022/05/11 10:12:56;;;;;;;;;;;45.90;14.90;;;;;;5082262;28;19919;-89
2022/05/11 10:24:04;;;;;;;;;;;45.70;14.70;;;;;;5085885;28;20183;-89
2022/05/11 10:26:36;;;;;;;;;;;45.70;14.50;;;;;;5064516;28;20268;-89
2022/05/11 10:29:16;;;;;;;;;;;45.70;14.70;;;;;;5080145;28;19919;-89
2022/05/11 10:32:08;;;;;;;;;;;45.70;14.30;;;;;;5079718;28;19932;-89
2022/05/11 10:34:45;;;;;;;;;;;45.80;14.20;;;;;;5056827;28;19912;-89
2022/05/11 10:37:24;;;;;;;;;;;45.90;14.20;;;;;;5077755;28;19943;-88
2022/05/11 10:40:08;;;;;;;;;;;46.00;14.10;;;;;;5053628;28;19978;-89
2022/05/11 10:42:35;;;;;;;;;;;46.00;13.90;;;;;;5074396;28;20398;-88
2022/05/11 10:45:09;;;;;;;;;;;46.00;14.00;;;;;;5076588;28;19984;-89
2022/05/11 10:48:04;;;;;;;;;;;46.10;13.90;;;;;;5093019;28;19913;-88
2022/05/11 10:50:54;;;;;;;;;;;45.90;13.60;;;;;;5082649;28;19912;-88
2022/05/11 10:53:25;;;;;;;;;;;45.80;13.80;;;;;;5076683;28;19916;-89
2022/05/11 10:55:50;;;;;;;;;;;45.70;13.80;;;;;;5073305;28;19912;-87
2022/05/11 10:58:34;;;;;;;;;;;45.60;14.00;;;;;;5080367;28;19934;-87
2022/05/11 11:01:05;;;;;;;;;;;45.50;14.10;;;;;;5080328;28;19920;-89
2022/05/11 11:03:45;;;;;;;;;;;45.60;14.00;;;;;;5083121;28;19912;-89
2022/05/11 11:08:58;;;;;;;;;;;45.30;14.20;;;;;;5082029;28;20271;-88
2022/05/11 11:11:42;;;;;;;;;;;45.40;14.30;;;;;;5084028;28;19913;-90
2022/05/11 11:14:10;;;;;;;;;;;45.30;14.10;;;;;;5088165;28;20334;-88
2022/05/11 11:16:40;;;;;;;;;;;45.20;14.20;;;;;;5089884;28;19915;-88
2022/05/11 11:19:07;;;;;;;;;;;45.30;14.30;;;;;;5087892;28;19921;-87
2022/05/11 11:21:32;;;;;;;;;;;45.30;14.00;;;;;;5091168;28;19974;-89
2022/05/11 11:24:17;;;;;;;;;;;45.30;14.10;;;;;;5080630;28;19983;-87
2022/05/11 11:26:52;;;;;;;;;;;45.40;14.30;;;;;;5081340;28;19913;-88
2022/05/11 11:29:19;;;;;;;;;;;45.50;14.10;;;;;;5087772;28;19969;-89
2022/05/11 11:31:58;;;;;;;;;;;45.50;14.20;;;;;;5085293;28;20322;-88
2022/05/11 11:34:29;;;;;;;;;;;45.70;14.30;;;;;;5086947;28;19962;-88
2022/05/11 11:36:55;;;;;;;;;;;45.50;14.20;;;;;;5087871;28;19937;-89
2022/05/11 11:39:39;;;;;;;;;;;45.20;14.40;;;;;;5088442;28;19920;-87
2022/05/11 11:42:07;;;;;;;;;;;45.20;14.40;;;;;;5090169;28;19916;-88
2022/05/11 11:44:37;;;;;;;;;;;45.30;14.40;;;;;;5083019;28;19912;-88
2022/05/11 11:47:25;;;;;;;;;;;45.30;14.00;;;;;;5086865;28;19973;-88
2022/05/11 11:49:50;;;;;;;;;;;44.90;14.00;;;;;;5080153;28;20287;-87
2022/05/11 11:52:32;;;;;;;;;;;44.80;14.20;;;;;;5082098;28;19909;-86
2022/05/11 11:54:57;;;;;;;;;;;44.70;14.30;;;;;;5077004;28;19916;-87
2022/05/11 11:57:23;;;;;;;;;;;44.70;14.50;;;;;;5084056;28;19942;-87
2022/05/11 11:59:49;;;;;;;;;;;44.80;14.50;;;;;;5087379;28;19930;-87
2022/05/11 12:02:22;;;;;;;;;;;44.80;14.30;;;;;;5082265;28;19908;-88
2022/05/11 12:04:57;;;;;;;;;;;44.80;14.40;;;;;;5086905;28;19916;-87
2022/05/11 12:15:57;;;;;;;;;;;44.80;14.50;;;;;;5090193;28;19915;-88
2022/05/11 12:18:24;;;;;;;;;;;44.90;14.70;;;;;;5083803;28;19921;-87
2022/05/11 12:20:50;;;;;;;;;;;45.00;14.50;;;;;;5087453;28;19925;-88
2022/05/11 12:23:20;;;;;;;;;;;45.10;14.50;;;;;;5083640;28;20022;-88
2022/05/11 12:26:00;;;;;;;;;;;45.20;14.50;;;;;;5087186;28;20375;-87
2022/05/11 12:28:34;;;;;;;;;;;45.30;14.40;;;;;;5082701;28;20044;-88
2022/05/11 12:31:00;;;;;;;;;;;45.30;14.50;;;;;;5081444;28;19917;-88
2022/05/11 12:33:32;;;;;;;;;;;45.50;14.50;;;;;;5084111;28;19935;-87
2022/05/11 12:35:58;;;;;;;;;;;45.00;14.20;;;;;;5089673;28;19970;-88
2022/05/11 12:38:42;;;;;;;;;;;44.70;14.10;;;;;;5085475;28;19924;-87
2022/05/11 12:41:13;;;;;;;;;;;44.40;14.60;;;;;;5083307;28;19931;-87
2022/05/11 12:43:40;;;;;;;;;;;44.30;14.70;;;;;;5087079;28;19917;-87
2022/05/11 12:46:08;;;;;;;;;;;44.30;14.70;;;;;;5083752;28;19919;-87
2022/05/11 12:48:35;;;;;;;;;;;44.30;14.80;;;;;;5087731;28;19912;-88
2022/05/11 12:51:04;;;;;;;;;;;43.80;15.00;;;;;;5082161;28;19986;-87
2022/05/11 12:53:31;;;;;;;;;;;43.80;15.00;;;;;;5080783;28;19938;-87
2022/05/11 12:56:27;;;;;;;;;;;43.90;14.80;;;;;;5081992;28;19995;-87
2022/05/11 12:58:54;;;;;;;;;;;43.70;14.30;;;;;;5075334;28;19920;-88
2022/05/11 13:01:21;;;;;;;;;;;43.50;14.40;;;;;;5080549;28;19917;-87
2022/05/11 13:03:48;;;;;;;;;;;43.40;14.30;;;;;;5085909;28;19919;-88
2022/05/11 13:06:34;;;;;;;;;;;43.20;14.40;;;;;;5083114;28;20340;-88
2022/05/11 13:09:08;;;;;;;;;;;43.10;14.60;;;;;;5076628;28;19972;-88
2022/05/11 13:11:36;;;;;;;;;;;43.00;14.70;;;;;;5083617;28;19916;-88
2022/05/11 13:14:08;;;;;;;;;;;42.90;14.40;;;;;;5086132;28;19912;-87
2022/05/11 13:16:34;;;;;;;;;;;42.70;14.30;;;;;;5090692;28;19912;-87
2022/05/11 13:19:18;;;;;;;;;;;42.50;14.40;;;;;;5080012;28;19924;-87
2022/05/11 13:21:45;;;;;;;;;;;42.30;14.50;;;;;;5079361;28;19986;-87
2022/05/11 13:24:11;;;;;;;;;;;42.30;14.70;;;;;;5082656;28;20011;-88
2022/05/11 13:26:40;;;;;;;;;;;42.20;14.80;;;;;;5083826;28;19920;-88
2022/05/11 13:29:11;;;;;;;;;;;42.30;14.90;;;;;;5084202;28;19920;-87
2022/05/11 13:31:37;;;;;;;;;;;42.20;14.90;;;;;;5084514;28;19921;-88
2022/05/11 13:34:07;;;;;;;;;;;42.10;15.00;;;;;;5080623;28;19996;-87
2022/05/11 13:36:41;;;;;;;;;;;42.00;14.90;;;;;;5075708;28;19927;-87
2022/05/11 13:39:09;;;;;;;;;;;42.00;14.90;;;;;;5089590;28;19916;-88
2022/05/11 13:41:37;;;;;;;;;;;41.90;15.00;;;;;;5088953;28;19983;-87
2022/05/11 13:44:17;;;;;;;;;;;41.80;15.10;;;;;;5082903;28;20413;-86
2022/05/11 13:49:39;;;;;;;;;;;41.60;15.30;;;;;;5073168;28;19916;-88
2022/05/11 13:52:09;;;;;;;;;;;41.40;15.30;;;;;;5081114;28;20401;-90
2022/05/11 13:54:35;;;;;;;;;;;41.20;15.30;;;;;;5077146;28;20287;-89
2022/05/11 13:57:03;;;;;;;;;;;41.00;15.30;;;;;;5085833;28;19984;-89
2022/05/11 13:59:29;;;;;;;;;;;40.90;15.50;;;;;;5090005;28;19916;-89
2022/05/11 14:01:55;;;;;;;;;;;40.70;15.60;;;;;;5075976;28;19959;-89
2022/05/11 14:04:26;;;;;;;;;;;40.50;15.80;;;;;;5087302;28;19924;-89
2022/05/11 14:06:54;;;;;;;;;;;40.30;16.10;;;;;;5073114;28;20383;-89
2022/05/11 14:09:20;;;;;;;;;;;40.10;16.00;;;;;;5076329;28;20416;-89
2022/05/11 14:11:45;;;;;;;;;;;39.70;16.10;;;;;;5072728;28;19970;-89
2022/05/11 14:14:11;;;;;;;;;;;39.20;16.30;;;;;;5071843;28;19920;-89
2022/05/11 14:16:37;;;;;;;;;;;38.70;16.80;;;;;;5073947;28;19923;-89
2022/05/11 14:19:02;;;;;;;;;;;38.10;17.20;;;;;;5088855;28;19920;-89
2022/05/11 14:21:28;;;;;;;;;;;37.50;17.50;;;;;;5083139;28;19916;-89
2022/05/11 14:23:54;;;;;;;;;;;37.00;18.00;;;;;;5090710;28;19920;-89
2022/05/11 14:26:20;;;;;;;;;;;36.40;18.50;;;;;;5096009;28;19931;-88
2022/05/11 14:28:46;;;;;;;;;;;36.00;18.90;;;;;;5114542;28;19961;-88
2022/05/11 14:31:16;;;;;;;;;;;35.70;19.40;;;;;;5094328;28;19916;-88
2022/05/11 14:33:42;;;;;;;;;;;35.40;19.80;;;;;;5082004;28;19916;-88
2022/05/11 14:36:07;;;;;;;;;;;35.20;20.00;;;;;;5075496;28;19934;-89
2022/05/11 14:38:33;;;;;;;;;;;35.00;20.20;;;;;;5075538;28;19921;-88
2022/05/11 14:40:59;;;;;;;;;;;34.80;20.50;;;;;;5075190;28;19924;-89
2022/05/11 14:43:24;;;;;;;;;;;34.60;20.70;;;;;;5079157;28;19923;-89
2022/05/11 14:45:53;;;;;;;;;;;34.50;20.90;;;;;;5074075;28;19917;-89
2022/05/11 14:48:40;;;;;;;;;;;34.40;21.10;;;;;;5085396;28;20006;-88
2022/05/11 14:51:06;;;;;;;;;;;34.20;21.20;;;;;;5085581;28;19920;-90
2022/05/11 14:53:33;;;;;;;;;;;34.10;21.30;;;;;;5092954;28;19916;-88
2022/05/11 14:55:58;;;;;;;;;;;34.00;21.60;;;;;;5078400;28;19967;-90
2022/05/11 15:04:01;;;;;;;;;;;33.80;21.90;;;;;;5080174;28;20012;-88
2022/05/11 15:06:29;;;;;;;;;;;33.80;22.00;;;;;;5074498;28;19983;-88
2022/05/11 15:08:55;;;;;;;;;;;33.80;22.00;;;;;;5075117;28;19947;-89
2022/05/11 15:14:04;;;;;;;;;;;33.70;22.00;;;;;;5091907;28;20324;-88
2022/05/11 15:16:31;;;;;;;;;;;33.60;22.20;;;;;;5095339;28;19912;-88
2022/05/11 15:18:57;;;;;;;;;;;33.50;22.30;;;;;;5081302;28;19924;-88
2022/05/11 15:21:22;;;;;;;;;;;33.50;22.50;;;;;;5074847;28;19916;-88
2022/05/11 15:23:48;;;;;;;;;;;33.40;22.50;;;;;;5083532;28;19917;-90